sensor_id;sensor_type;location;lat;lon;timestamp;pressure;altitude;pressure_sealevel;temperature;humidity
55070;BME280;40967;52.070;8.596;2022-09-20T00:02:24;100904.91;;;10.66;86.20
55070;BME280;40967;52.070;8.596;2022-09-20T00:04:49;100917.47;;;10.77;85.97
55070;BME280;40967;52.070;8.596;2022-09-20T00:07:14;100917.47;;;10.77;85.55
55070;BME280;40967;52.070;8.596;2022-09-20T00:09:39;100915.03;;;10.75;85.43
55070;BME280;40967;52.070;8.596;2022-09-20T00:12:06;100922.03;;;10.71;85.67
55070;BME280;40967;52.070;8.596;2022-09-20T00:14:31;100907.06;;;10.64;85.32
55070;BME280;40967;52.070;8.596;2022-09-20T00:16:56;100923.06;;;10.65;85.65
55070;BME280;40967;52.070;8.596;2022-09-20T00:19:22;100926.28;;;10.57;85.95
55070;BME280;40967;52.070;8.596;2022-09-20T00:21:47;100897.06;;;10.38;85.90
55070;BME280;40967;52.070;8.596;2022-09-20T00:24:12;100927.56;;;10.50;86.35
55070;BME280;40967;52.070;8.596;2022-09-20T00:26:38;100910.63;;;10.38;86.79
55070;BME280;40967;52.070;8.596;2022-09-20T00:29:04;100929.94;;;10.41;86.87
55070;BME280;40967;52.070;8.596;2022-09-20T00:31:30;100931.03;;;10.40;86.74
55070;BME280;40967;52.070;8.596;2022-09-20T00:33:56;100916.28;;;10.31;86.88
55070;BME280;40967;52.070;8.596;2022-09-20T00:36:41;100925.63;;;10.45;86.01
55070;BME280;40967;52.070;8.596;2022-09-20T00:39:10;100927.78;;;10.43;86.49
55070;BME280;40967;52.070;8.596;2022-09-20T00:41:35;100935.09;;;10.43;86.61
55070;BME280;40967;52.070;8.596;2022-09-20T00:44:01;100937.81;;;10.43;86.74
55070;BME280;40967;52.070;8.596;2022-09-20T00:46:33;100939.47;;;10.44;87.00
55070;BME280;40967;52.070;8.596;2022-09-20T00:49:20;100943.00;;;10.44;87.07
55070;BME280;40967;52.070;8.596;2022-09-20T00:51:53;100934.28;;;10.42;87.14
55070;BME280;40967;52.070;8.596;2022-09-20T00:54:20;100935.31;;;10.36;87.16
55070;BME280;40967;52.070;8.596;2022-09-20T00:56:47;100929.28;;;10.29;87.33
55070;BME280;40967;52.070;8.596;2022-09-20T00:59:20;100931.72;;;10.30;87.56
55070;BME280;40967;52.070;8.596;2022-09-20T01:01:51;100936.34;;;10.30;87.88
55070;BME280;40967;52.070;8.596;2022-09-20T01:04:22;100921.38;;;10.22;88.02
55070;BME280;40967;52.070;8.596;2022-09-20T01:06:50;100934.72;;;10.29;88.14
55070;BME280;40967;52.070;8.596;2022-09-20T01:09:17;100929.28;;;10.29;88.11
55070;BME280;40967;52.070;8.596;2022-09-20T01:11:43;100939.06;;;10.30;88.34
55070;BME280;40967;52.070;8.596;2022-09-20T01:14:12;100929.53;;;10.27;88.48
55070;BME280;40967;52.070;8.596;2022-09-20T01:16:39;100932.81;;;10.29;88.34
55070;BME280;40967;52.070;8.596;2022-09-20T01:19:17;100918.38;;;10.24;88.53
55070;BME280;40967;52.070;8.596;2022-09-20T01:21:45;100921.38;;;10.22;88.59
55070;BME280;40967;52.070;8.596;2022-09-20T01:24:36;100930.09;;;10.29;88.39
55070;BME280;40967;52.070;8.596;2022-09-20T01:27:48;100923.28;;;10.27;88.65
55070;BME280;40967;52.070;8.596;2022-09-20T01:30:21;100940.66;;;10.26;88.80
55070;BME280;40967;52.070;8.596;2022-09-20T01:33:11;100934.09;;;10.22;88.94
55070;BME280;40967;52.070;8.596;2022-09-20T01:35:43;100934.63;;;10.19;88.92
55070;BME280;40967;52.070;8.596;2022-09-20T01:41:03;100940.56;;;10.16;89.18
55070;BME280;40967;52.070;8.596;2022-09-20T01:43:52;100940.25;;;10.12;89.01
55070;BME280;40967;52.070;8.596;2022-09-20T01:46:29;100941.22;;;10.06;89.36
55070;BME280;40967;52.070;8.596;2022-09-20T01:52:02;100940.03;;;9.97;90.10
55070;BME280;40967;52.070;8.596;2022-09-20T01:57:57;100945.72;;;9.96;90.36
55070;BME280;40967;52.070;8.596;2022-09-20T02:00:29;100939.75;;;9.94;90.18
55070;BME280;40967;52.070;8.596;2022-09-20T02:07:02;100948.66;;;9.89;90.37
55070;BME280;40967;52.070;8.596;2022-09-20T02:15:07;100948.53;;;9.79;91.31
55070;BME280;40967;52.070;8.596;2022-09-20T02:17:59;100943.38;;;9.78;91.27
55070;BME280;40967;52.070;8.596;2022-09-20T02:20:55;100946.34;;;9.76;91.61
55070;BME280;40967;52.070;8.596;2022-09-20T02:29:47;100940.84;;;9.71;91.74
55070;BME280;40967;52.070;8.596;2022-09-20T02:34:59;100942.94;;;9.64;92.41
55070;BME280;40967;52.070;8.596;2022-09-20T02:37:44;100945.66;;;9.64;92.24
55070;BME280;40967;52.070;8.596;2022-09-20T02:43:32;100947.53;;;9.64;92.21
55070;BME280;40967;52.070;8.596;2022-09-20T02:46:19;100945.34;;;9.61;92.41
55070;BME280;40967;52.070;8.596;2022-09-20T02:48:47;100941.50;;;9.57;92.79
55070;BME280;40967;52.070;8.596;2022-09-20T02:59:25;100947.50;;;9.59;93.12
55070;BME280;40967;52.070;8.596;2022-09-20T03:10:23;100947.66;;;9.52;93.28
55070;BME280;40967;52.070;8.596;2022-09-20T03:15:51;100946.53;;;9.48;93.83
55070;BME280;40967;52.070;8.596;2022-09-20T03:18:40;100939.47;;;9.47;94.22
55070;BME280;40967;52.070;8.596;2022-09-20T03:21:10;100954.41;;;9.50;94.07
55070;BME280;40967;52.070;8.596;2022-09-20T03:23:53;100952.53;;;9.50;94.43
55070;BME280;40967;52.070;8.596;2022-09-20T03:29:54;100957.44;;;9.53;94.12
55070;BME280;40967;52.070;8.596;2022-09-20T03:32:46;100964.16;;;9.51;94.09
55070;BME280;40967;52.070;8.596;2022-09-20T03:41:08;100979.34;;;9.52;94.46
55070;BME280;40967;52.070;8.596;2022-09-20T03:44:14;100953.84;;;9.48;94.52
55070;BME280;40967;52.070;8.596;2022-09-20T03:46:45;100956.03;;;9.51;94.62
55070;BME280;40967;52.070;8.596;2022-09-20T03:57:55;100970.66;;;9.50;94.89
55070;BME280;40967;52.070;8.596;2022-09-20T04:03:33;100972.84;;;9.53;94.95
55070;BME280;40967;52.070;8.596;2022-09-20T04:14:39;100965.69;;;9.63;95.29
55070;BME280;40967;52.070;8.596;2022-09-20T04:20:04;100964.84;;;9.63;95.45
55070;BME280;40967;52.070;8.596;2022-09-20T04:22:31;100976.56;;;9.68;95.67
55070;BME280;40967;52.070;8.596;2022-09-20T04:25:03;100971.47;;;9.72;95.66
55070;BME280;40967;52.070;8.596;2022-09-20T04:30:26;100969.91;;;9.76;95.16
55070;BME280;40967;52.070;8.596;2022-09-20T04:33:19;100971.28;;;9.78;95.21
55070;BME280;40967;52.070;8.596;2022-09-20T04:39:10;100970.47;;;9.78;95.04
55070;BME280;40967;52.070;8.596;2022-09-20T04:42:05;100975.59;;;9.74;95.31
55070;BME280;40967;52.070;8.596;2022-09-20T04:45:08;100975.53;;;9.69;96.07
55070;BME280;40967;52.070;8.596;2022-09-20T04:48:05;100980.38;;;9.67;95.99
55070;BME280;40967;52.070;8.596;2022-09-20T04:53:45;100986.31;;;9.64;96.15
55070;BME280;40967;52.070;8.596;2022-09-20T05:16:28;101008.66;;;9.55;97.48
55070;BME280;40967;52.070;8.596;2022-09-20T05:24:50;101024.25;;;9.48;98.03
55070;BME280;40967;52.070;8.596;2022-09-20T05:35:28;101032.44;;;9.53;97.33
55070;BME280;40967;52.070;8.596;2022-09-20T05:38:08;101032.97;;;9.50;97.04
55070;BME280;40967;52.070;8.596;2022-09-20T05:43:23;101039.09;;;9.45;97.37
55070;BME280;40967;52.070;8.596;2022-09-20T05:49:57;101037.28;;;9.51;96.37
55070;BME280;40967;52.070;8.596;2022-09-20T05:52:35;101042.72;;;9.51;96.68
55070;BME280;40967;52.070;8.596;2022-09-20T05:55:48;101048.13;;;9.51;97.20
55070;BME280;40967;52.070;8.596;2022-09-20T06:02:20;101047.66;;;9.54;97.47
55070;BME280;40967;52.070;8.596;2022-09-20T06:05:03;101052.31;;;9.58;97.57
55070;BME280;40967;52.070;8.596;2022-09-20T06:14:39;101064.25;;;9.79;96.45
55070;BME280;40967;52.070;8.596;2022-09-20T06:22:18;101065.69;;;9.86;96.03
55070;BME280;40967;52.070;8.596;2022-09-20T06:24:54;101066.28;;;9.88;96.12
55070;BME280;40967;52.070;8.596;2022-09-20T06:27:29;101060.59;;;9.90;95.94
55070;BME280;40967;52.070;8.596;2022-09-20T06:30:02;101049.44;;;9.86;96.03
55070;BME280;40967;52.070;8.596;2022-09-20T06:32:30;101060.59;;;9.90;95.57
55070;BME280;40967;52.070;8.596;2022-09-20T06:34:57;101073.19;;;10.01;95.48
55070;BME280;40967;52.070;8.596;2022-09-20T06:37:37;101075.41;;;10.04;95.42
55070;BME280;40967;52.070;8.596;2022-09-20T06:40:43;101071.63;;;10.05;95.14
55070;BME280;40967;52.070;8.596;2022-09-20T06:43:29;101070.78;;;10.04;95.28
55070;BME280;40967;52.070;8.596;2022-09-20T06:45:57;101065.06;;;10.01;95.28
55070;BME280;40967;52.070;8.596;2022-09-20T06:48:23;101064.66;;;10.09;95.32
55070;BME280;40967;52.070;8.596;2022-09-20T06:50:49;101061.34;;;10.07;95.27
55070;BME280;40967;52.070;8.596;2022-09-20T06:53:18;101060.88;;;10.10;95.39
55070;BME280;40967;52.070;8.596;2022-09-20T06:55:45;101076.13;;;10.16;95.43
55070;BME280;40967;52.070;8.596;2022-09-20T06:58:11;101082.34;;;10.16;95.55
55070;BME280;40967;52.070;8.596;2022-09-20T07:00:36;101082.66;;;10.20;95.68
55070;BME280;40967;52.070;8.596;2022-09-20T07:03:04;101087.63;;;10.23;95.97
55070;BME280;40967;52.070;8.596;2022-09-20T07:05:30;101089.75;;;10.21;96.03
55070;BME280;40967;52.070;8.596;2022-09-20T07:07:56;101087.31;;;10.19;96.16
55070;BME280;40967;52.070;8.596;2022-09-20T07:10:22;101083.44;;;10.15;96.38
55070;BME280;40967;52.070;8.596;2022-09-20T07:12:48;101089.19;;;10.19;96.54
55070;BME280;40967;52.070;8.596;2022-09-20T07:15:14;101093.16;;;10.33;96.42
55070;BME280;40967;52.070;8.596;2022-09-20T07:17:50;101101.34;;;10.38;96.10
55070;BME280;40967;52.070;8.596;2022-09-20T07:20:15;101101.41;;;10.43;95.90
55070;BME280;40967;52.070;8.596;2022-09-20T07:22:41;101082.00;;;10.29;96.01
55070;BME280;40967;52.070;8.596;2022-09-20T07:25:07;101090.19;;;10.35;95.83
55070;BME280;40967;52.070;8.596;2022-09-20T07:27:32;101101.41;;;10.43;95.93
55070;BME280;40967;52.070;8.596;2022-09-20T07:29:57;101112.31;;;10.48;95.78
55070;BME280;40967;52.070;8.596;2022-09-20T07:32:23;101106.13;;;10.53;96.01
55070;BME280;40967;52.070;8.596;2022-09-20T07:34:48;101116.00;;;10.64;95.52
55070;BME280;40967;52.070;8.596;2022-09-20T07:37:16;101109.38;;;10.55;95.28
55070;BME280;40967;52.070;8.596;2022-09-20T07:39:42;101111.41;;;10.64;94.99
55070;BME280;40967;52.070;8.596;2022-09-20T07:42:09;101130.22;;;10.76;94.77
55070;BME280;40967;52.070;8.596;2022-09-20T07:44:35;101120.50;;;10.80;94.88
55070;BME280;40967;52.070;8.596;2022-09-20T07:47:00;101117.50;;;10.76;94.88
55070;BME280;40967;52.070;8.596;2022-09-20T07:49:27;101113.91;;;10.71;94.97
55070;BME280;40967;52.070;8.596;2022-09-20T07:51:55;101125.13;;;10.79;94.70
55070;BME280;40967;52.070;8.596;2022-09-20T07:54:21;101119.19;;;10.82;94.39
55070;BME280;40967;52.070;8.596;2022-09-20T07:56:46;101126.31;;;10.88;94.29
55070;BME280;40967;52.070;8.596;2022-09-20T07:59:12;101136.69;;;10.96;94.01
55070;BME280;40967;52.070;8.596;2022-09-20T08:01:39;101132.66;;;10.99;94.20
55070;BME280;40967;52.070;8.596;2022-09-20T08:04:06;101115.41;;;10.83;94.14
55070;BME280;40967;52.070;8.596;2022-09-20T08:06:36;101142.00;;;11.13;94.11
55070;BME280;40967;52.070;8.596;2022-09-20T08:09:04;101149.50;;;11.27;93.82
55070;BME280;40967;52.070;8.596;2022-09-20T08:11:31;101141.97;;;11.39;93.06
55070;BME280;40967;52.070;8.596;2022-09-20T08:13:59;101150.25;;;11.55;92.49
55070;BME280;40967;52.070;8.596;2022-09-20T08:16:30;101145.22;;;11.68;91.81
55070;BME280;40967;52.070;8.596;2022-09-20T08:18:58;101149.34;;;11.76;91.23
55070;BME280;40967;52.070;8.596;2022-09-20T08:21:25;101151.59;;;11.89;90.51
55070;BME280;40967;52.070;8.596;2022-09-20T08:23:51;101145.66;;;11.97;90.12
55070;BME280;40967;52.070;8.596;2022-09-20T08:26:19;101154.41;;;12.04;89.48
55070;BME280;40967;52.070;8.596;2022-09-20T08:28:46;101154.94;;;12.06;88.97
55070;BME280;40967;52.070;8.596;2022-09-20T08:31:15;101154.94;;;12.06;88.37
55070;BME280;40967;52.070;8.596;2022-09-20T08:33:43;101155.50;;;12.08;87.72
55070;BME280;40967;52.070;8.596;2022-09-20T08:36:12;101150.16;;;12.18;87.86
55070;BME280;40967;52.070;8.596;2022-09-20T08:38:38;101159.94;;;12.24;87.01
55070;BME280;40967;52.070;8.596;2022-09-20T08:41:13;101157.25;;;12.29;86.49
55070;BME280;40967;52.070;8.596;2022-09-20T08:43:45;101137.66;;;12.32;86.54
55070;BME280;40967;52.070;8.596;2022-09-20T08:46:18;101162.81;;;12.54;85.90
55070;BME280;40967;52.070;8.596;2022-09-20T08:48:45;101149.78;;;12.61;85.18
55070;BME280;40967;52.070;8.596;2022-09-20T08:51:12;101156.56;;;12.64;84.53
55070;BME280;40967;52.070;8.596;2022-09-20T08:53:46;101160.66;;;12.61;83.92
55070;BME280;40967;52.070;8.596;2022-09-20T08:56:12;101148.09;;;12.55;83.46
55070;BME280;40967;52.070;8.596;2022-09-20T08:58:37;101149.50;;;12.57;83.30
55070;BME280;40967;52.070;8.596;2022-09-20T09:01:04;101161.81;;;12.80;83.43
55070;BME280;40967;52.070;8.596;2022-09-20T09:03:31;101147.38;;;13.00;83.28
55070;BME280;40967;52.070;8.596;2022-09-20T09:05:57;101138.75;;;13.23;83.16
55070;BME280;40967;52.070;8.596;2022-09-20T09:08:36;101145.25;;;13.57;82.78
55070;BME280;40967;52.070;8.596;2022-09-20T09:11:06;101150.91;;;14.06;83.38
55070;BME280;40967;52.070;8.596;2022-09-20T09:13:58;101136.69;;;14.24;80.16
55070;BME280;40967;52.070;8.596;2022-09-20T09:16:30;101148.03;;;14.51;79.07
55070;BME280;40967;52.070;8.596;2022-09-20T09:18:56;101140.31;;;14.73;78.60
55070;BME280;40967;52.070;8.596;2022-09-20T09:21:27;101142.06;;;14.98;77.33
55070;BME280;40967;52.070;8.596;2022-09-20T09:24:03;101138.69;;;15.11;75.37
55070;BME280;40967;52.070;8.596;2022-09-20T09:26:40;101147.38;;;15.18;74.60
55070;BME280;40967;52.070;8.596;2022-09-20T09:31:36;101157.41;;;15.95;73.25
55070;BME280;40967;52.070;8.596;2022-09-20T09:34:04;101162.06;;;16.18;71.92
55070;BME280;40967;52.070;8.596;2022-09-20T09:36:29;101152.38;;;16.54;70.49
55070;BME280;40967;52.070;8.596;2022-09-20T09:41:41;101162.59;;;16.67;67.65
55070;BME280;40967;52.070;8.596;2022-09-20T09:44:30;101158.31;;;16.79;67.40
55070;BME280;40967;52.070;8.596;2022-09-20T09:47:00;101161.75;;;16.71;65.83
55070;BME280;40967;52.070;8.596;2022-09-20T09:49:27;101158.81;;;16.63;65.59
55070;BME280;40967;52.070;8.596;2022-09-20T09:52:05;101158.13;;;16.52;65.74
55070;BME280;40967;52.070;8.596;2022-09-20T09:54:39;101146.91;;;16.54;66.07
55070;BME280;40967;52.070;8.596;2022-09-20T09:57:38;101151.28;;;16.73;65.31
55070;BME280;40967;52.070;8.596;2022-09-20T10:00:13;101159.84;;;16.67;64.19
55070;BME280;40967;52.070;8.596;2022-09-20T10:11:55;101150.78;;;16.48;63.58
55070;BME280;40967;52.070;8.596;2022-09-20T10:18:15;101148.94;;;17.04;61.76
55070;BME280;40967;52.070;8.596;2022-09-20T10:26:14;101155.06;;;16.96;60.85
55070;BME280;40967;52.070;8.596;2022-09-20T10:29:22;101162.13;;;16.83;61.10
55070;BME280;40967;52.070;8.596;2022-09-20T10:37:13;101170.22;;;15.37;67.26
55070;BME280;40967;52.070;8.596;2022-09-20T10:39:45;101171.34;;;14.92;69.40
55070;BME280;40967;52.070;8.596;2022-09-20T10:42:41;101188.78;;;14.42;72.18
55070;BME280;40967;52.070;8.596;2022-09-20T10:48:27;101191.63;;;13.82;75.84
55070;BME280;40967;52.070;8.596;2022-09-20T10:51:03;101182.09;;;13.64;76.50
55070;BME280;40967;52.070;8.596;2022-09-20T10:53:49;101181.00;;;13.55;77.24
55070;BME280;40967;52.070;8.596;2022-09-20T11:01:45;101189.72;;;13.78;78.01
55070;BME280;40967;52.070;8.596;2022-09-20T11:10:04;101188.59;;;13.89;79.29
55070;BME280;40967;52.070;8.596;2022-09-20T11:12:40;101186.69;;;13.89;79.82
55070;BME280;40967;52.070;8.596;2022-09-20T11:15:15;101192.97;;;13.95;80.28
55070;BME280;40967;52.070;8.596;2022-09-20T11:18:09;101183.38;;;14.02;80.75
55070;BME280;40967;52.070;8.596;2022-09-20T11:20:54;101180.13;;;14.05;80.25
55070;BME280;40967;52.070;8.596;2022-09-20T11:23:27;101187.72;;;14.18;79.80
55070;BME280;40967;52.070;8.596;2022-09-20T11:26:09;101183.91;;;14.29;79.34
55070;BME280;40967;52.070;8.596;2022-09-20T11:28:41;101186.28;;;14.46;79.63
55070;BME280;40967;52.070;8.596;2022-09-20T11:34:22;101194.22;;;14.52;81.13
55070;BME280;40967;52.070;8.596;2022-09-20T11:37:19;101192.19;;;14.78;81.11
55070;BME280;40967;52.070;8.596;2022-09-20T11:39:52;101167.66;;;14.68;80.17
55070;BME280;40967;52.070;8.596;2022-09-20T11:42:21;101197.38;;;14.74;79.18
55070;BME280;40967;52.070;8.596;2022-09-20T11:44:48;101187.38;;;14.50;77.51
55070;BME280;40967;52.070;8.596;2022-09-20T11:55:36;101193.94;;;15.08;74.91
55070;BME280;40967;52.070;8.596;2022-09-20T11:58:07;101187.47;;;15.32;73.73
55070;BME280;40967;52.070;8.596;2022-09-20T12:00:45;101188.81;;;15.40;72.00
55070;BME280;40967;52.070;8.596;2022-09-20T12:03:41;101193.41;;;15.49;71.32
55070;BME280;40967;52.070;8.596;2022-09-20T12:06:44;101194.28;;;15.40;70.89
55070;BME280;40967;52.070;8.596;2022-09-20T12:13:00;101191.50;;;15.45;69.91
55070;BME280;40967;52.070;8.596;2022-09-20T12:15:35;101187.53;;;15.61;69.39
55070;BME280;40967;52.070;8.596;2022-09-20T12:18:59;101179.63;;;15.88;68.94
55070;BME280;40967;52.070;8.596;2022-09-20T12:20:57;101170.69;;;16.30;68.71
55070;BME280;40967;52.070;8.596;2022-09-20T12:26:04;101179.38;;;17.21;67.05
55070;BME280;40967;52.070;8.596;2022-09-20T12:28:36;101171.84;;;17.45;65.61
55070;BME280;40967;52.070;8.596;2022-09-20T12:33:58;101165.78;;;17.48;62.79
55070;BME280;40967;52.070;8.596;2022-09-20T12:36:24;101159.72;;;17.33;62.20
55070;BME280;40967;52.070;8.596;2022-09-20T12:41:27;101166.09;;;17.47;60.30
55070;BME280;40967;52.070;8.596;2022-09-20T12:44:05;101157.59;;;17.11;59.60
55070;BME280;40967;52.070;8.596;2022-09-20T12:46:52;101170.63;;;17.19;58.83
55070;BME280;40967;52.070;8.596;2022-09-20T13:14:21;101167.72;;;17.29;54.06
55070;BME280;40967;52.070;8.596;2022-09-20T13:17:07;101162.28;;;17.43;54.07
55070;BME280;40967;52.070;8.596;2022-09-20T13:19:44;101166.03;;;17.65;54.31
55070;BME280;40967;52.070;8.596;2022-09-20T13:22:25;101175.03;;;17.84;53.85
55070;BME280;40967;52.070;8.596;2022-09-20T13:24:56;101172.38;;;17.79;53.08
55070;BME280;40967;52.070;8.596;2022-09-20T13:27:38;101166.44;;;17.91;54.36
55070;BME280;40967;52.070;8.596;2022-09-20T13:30:21;101170.66;;;18.16;54.59
55070;BME280;40967;52.070;8.596;2022-09-20T13:32:51;101167.75;;;18.07;53.44
55070;BME280;40967;52.070;8.596;2022-09-20T13:35:22;101174.44;;;17.74;53.45
55070;BME280;40967;52.070;8.596;2022-09-20T13:38:04;101167.19;;;17.64;54.62
55070;BME280;40967;52.070;8.596;2022-09-20T13:40:42;101169.94;;;17.78;54.44
55070;BME280;40967;52.070;8.596;2022-09-20T13:43:26;101148.75;;;17.51;54.28
55070;BME280;40967;52.070;8.596;2022-09-20T13:45:55;101172.84;;;17.54;55.50
55070;BME280;40967;52.070;8.596;2022-09-20T13:48:28;101162.16;;;17.53;55.98
55070;BME280;40967;52.070;8.596;2022-09-20T13:50:56;101164.00;;;17.57;55.04
55070;BME280;40967;52.070;8.596;2022-09-20T13:53:24;101160.66;;;17.60;55.25
55070;BME280;40967;52.070;8.596;2022-09-20T13:55:50;101184.06;;;17.71;54.87
55070;BME280;40967;52.070;8.596;2022-09-20T14:01:26;101176.53;;;17.45;54.09
55070;BME280;40967;52.070;8.596;2022-09-20T14:03:53;101185.47;;;17.18;54.32
55070;BME280;40967;52.070;8.596;2022-09-20T14:06:23;101188.53;;;16.74;54.60
55070;BME280;40967;52.070;8.596;2022-09-20T14:08:54;101182.56;;;16.44;55.58
55070;BME280;40967;52.070;8.596;2022-09-20T14:13:51;101177.00;;;16.30;56.50
55070;BME280;40967;52.070;8.596;2022-09-20T14:16:19;101170.69;;;16.30;56.12
55070;BME280;40967;52.070;8.596;2022-09-20T14:18:46;101189.59;;;16.31;55.83
55070;BME280;40967;52.070;8.596;2022-09-20T14:21:13;101183.84;;;16.04;55.97
55070;BME280;40967;52.070;8.596;2022-09-20T14:24:25;101181.94;;;16.05;56.33
55070;BME280;40967;52.070;8.596;2022-09-20T14:27:18;101190.97;;;16.29;56.34
55070;BME280;40967;52.070;8.596;2022-09-20T14:29:46;101193.41;;;16.30;55.73
55070;BME280;40967;52.070;8.596;2022-09-20T14:35:27;101194.13;;;16.41;56.64
55070;BME280;40967;52.070;8.596;2022-09-20T14:37:32;101196.09;;;16.35;56.61
55070;BME280;40967;52.070;8.596;2022-09-20T14:40:13;101194.97;;;16.13;56.75
55070;BME280;40967;52.070;8.596;2022-09-20T14:42:42;101197.25;;;16.06;57.55
55070;BME280;40967;52.070;8.596;2022-09-20T14:47:54;101192.03;;;15.80;57.59
55070;BME280;40967;52.070;8.596;2022-09-20T14:50:31;101202.34;;;15.88;58.02
55070;BME280;40967;52.070;8.596;2022-09-20T14:53:21;101200.09;;;15.67;58.68
55070;BME280;40967;52.070;8.596;2022-09-20T14:58:29;101208.56;;;15.65;58.99
55070;BME280;40967;52.070;8.596;2022-09-20T15:03:51;101215.81;;;15.80;58.90
55070;BME280;40967;52.070;8.596;2022-09-20T15:06:17;101207.09;;;15.78;59.51
55070;BME280;40967;52.070;8.596;2022-09-20T15:08:43;101210.84;;;15.87;59.54
55070;BME280;40967;52.070;8.596;2022-09-20T15:11:13;101212.16;;;15.95;59.28
55070;BME280;40967;52.070;8.596;2022-09-20T15:13:39;101214.84;;;16.00;59.40
55070;BME280;40967;52.070;8.596;2022-09-20T15:16:05;101200.81;;;16.06;59.11
55070;BME280;40967;52.070;8.596;2022-09-20T15:18:39;101195.97;;;16.22;59.30
55070;BME280;40967;52.070;8.596;2022-09-20T15:21:05;101200.97;;;16.43;59.43
55070;BME280;40967;52.070;8.596;2022-09-20T15:23:31;101208.06;;;16.44;58.35
55070;BME280;40967;52.070;8.596;2022-09-20T15:25:57;101204.66;;;16.29;58.38
55070;BME280;40967;52.070;8.596;2022-09-20T15:28:22;101202.75;;;16.29;58.47
55070;BME280;40967;52.070;8.596;2022-09-20T15:30:49;101200.81;;;16.30;58.21
55070;BME280;40967;52.070;8.596;2022-09-20T15:33:16;101207.88;;;16.36;57.96
55070;BME280;40967;52.070;8.596;2022-09-20T15:35:42;101212.59;;;16.30;57.88
55070;BME280;40967;52.070;8.596;2022-09-20T15:38:09;101209.66;;;16.22;58.13
55070;BME280;40967;52.070;8.596;2022-09-20T15:40:40;101219.25;;;16.24;57.95
55070;BME280;40967;52.070;8.596;2022-09-20T15:43:06;101219.19;;;16.01;58.10
55070;BME280;40967;52.070;8.596;2022-09-20T15:45:33;101193.41;;;15.78;58.88
55070;BME280;40967;52.070;8.596;2022-09-20T15:47:59;101207.56;;;15.85;59.18
55070;BME280;40967;52.070;8.596;2022-09-20T15:50:24;101215.06;;;16.03;59.25
55070;BME280;40967;52.070;8.596;2022-09-20T15:52:50;101209.19;;;16.15;58.81
55070;BME280;40967;52.070;8.596;2022-09-20T15:55:17;101214.84;;;16.23;58.86
55070;BME280;40967;52.070;8.596;2022-09-20T15:57:44;101224.06;;;16.32;58.80
55070;BME280;40967;52.070;8.596;2022-09-20T16:00:09;101228.06;;;16.45;58.80
55070;BME280;40967;52.070;8.596;2022-09-20T16:02:35;101227.13;;;16.54;58.78
55070;BME280;40967;52.070;8.596;2022-09-20T16:05:01;101217.47;;;16.62;58.84
55070;BME280;40967;52.070;8.596;2022-09-20T16:07:26;101219.69;;;16.60;58.88
55070;BME280;40967;52.070;8.596;2022-09-20T16:09:55;101214.78;;;16.57;59.03
55070;BME280;40967;52.070;8.596;2022-09-20T16:12:22;101220.50;;;16.60;59.07
55070;BME280;40967;52.070;8.596;2022-09-20T16:14:49;101227.28;;;16.68;59.18
55070;BME280;40967;52.070;8.596;2022-09-20T16:17:15;101228.38;;;16.67;59.49
55070;BME280;40967;52.070;8.596;2022-09-20T16:19:42;101218.84;;;16.59;59.52
55070;BME280;40967;52.070;8.596;2022-09-20T16:22:10;101223.41;;;16.69;59.54
55070;BME280;40967;52.070;8.596;2022-09-20T16:24:36;101220.91;;;16.72;59.35
55070;BME280;40967;52.070;8.596;2022-09-20T16:27:04;101225.56;;;16.72;59.26
55070;BME280;40967;52.070;8.596;2022-09-20T16:29:30;101224.78;;;16.66;59.35
55070;BME280;40967;52.070;8.596;2022-09-20T16:31:57;101218.91;;;16.31;59.42
55070;BME280;40967;52.070;8.596;2022-09-20T16:34:41;101228.25;;;16.25;59.72
55070;BME280;40967;52.070;8.596;2022-09-20T16:37:11;101229.06;;;16.02;59.74
55070;BME280;40967;52.070;8.596;2022-09-20T16:39:39;101228.03;;;15.93;59.88
55070;BME280;40967;52.070;8.596;2022-09-20T16:42:07;101226.13;;;15.93;60.00
55070;BME280;40967;52.070;8.596;2022-09-20T16:44:41;101234.28;;;15.98;60.07
55070;BME280;40967;52.070;8.596;2022-09-20T16:47:13;101240.94;;;15.87;60.01
55070;BME280;40967;52.070;8.596;2022-09-20T16:49:50;101232.34;;;15.70;60.34
55070;BME280;40967;52.070;8.596;2022-09-20T16:52:18;101242.47;;;15.69;60.53
55070;BME280;40967;52.070;8.596;2022-09-20T16:55:11;101244.63;;;15.72;60.81
55070;BME280;40967;52.070;8.596;2022-09-20T16:57:51;101237.06;;;15.59;60.82
55070;BME280;40967;52.070;8.596;2022-09-20T17:00:20;101258.50;;;15.47;61.48
55070;BME280;40967;52.070;8.596;2022-09-20T17:02:50;101253.13;;;15.22;61.75
55070;BME280;40967;52.070;8.596;2022-09-20T17:05:16;101250.00;;;15.00;62.74
55070;BME280;40967;52.070;8.596;2022-09-20T17:07:45;101254.34;;;15.01;62.51
55070;BME280;40967;52.070;8.596;2022-09-20T17:10:11;101261.69;;;15.11;62.61
55070;BME280;40967;52.070;8.596;2022-09-20T17:12:36;101261.13;;;15.14;62.53
55070;BME280;40967;52.070;8.596;2022-09-20T17:15:09;101262.25;;;15.08;62.51
55070;BME280;40967;52.070;8.596;2022-09-20T17:17:37;101261.44;;;15.07;62.92
55070;BME280;40967;52.070;8.596;2022-09-20T17:20:03;101271.00;;;15.05;63.16
55070;BME280;40967;52.070;8.596;2022-09-20T17:22:33;101271.53;;;15.07;63.47
55070;BME280;40967;52.070;8.596;2022-09-20T17:24:59;101281.13;;;15.04;63.56
55070;BME280;40967;52.070;8.596;2022-09-20T17:27:24;101278.94;;;15.01;63.78
55070;BME280;40967;52.070;8.596;2022-09-20T17:29:50;101284.44;;;14.96;64.03
55070;BME280;40967;52.070;8.596;2022-09-20T17:32:16;101282.00;;;14.90;64.36
55070;BME280;40967;52.070;8.596;2022-09-20T17:34:43;101291.06;;;14.85;64.41
55070;BME280;40967;52.070;8.596;2022-09-20T17:37:08;101290.25;;;14.79;64.61
55070;BME280;40967;52.070;8.596;2022-09-20T17:39:34;101287.53;;;14.74;64.51